Time;durP1;ratioP1;P1;durP2;ratioP2;P2;SDS_P1;SDS_P2;PMS_P1;PMS_P2;Temp;Humidity;BMP_temperature;BMP_pressure;BME280_temperature;BME280_humidity;BME280_pressure;Samples;Min_cycle;Max_cycle;Signal;HPM_P1;HPM_P2
2024/04/01 00:00:40;;;;;;;1999.90;999.90;;;7.70;99.90;;;;;;5021700;28;20025;-79
2024/04/01 00:03:06;;;;;;;1999.90;999.90;;;7.70;99.90;;;;;;5019032;28;20033;-78
2024/04/01 00:05:32;;;;;;;1999.90;999.90;;;7.60;99.90;;;;;;5021909;28;20044;-79
2024/04/01 00:07:59;;;;;;;1999.90;999.90;;;7.70;99.90;;;;;;5022118;28;20660;-79
2024/04/01 00:10:24;;;;;;;1999.90;999.90;;;7.70;99.90;;;;;;5021934;28;20029;-78
2024/04/01 00:12:50;;;;;;;1999.90;999.90;;;7.60;99.90;;;;;;5017525;28;20088;-80
2024/04/01 00:15:18;;;;;;;1999.90;999.90;;;7.70;99.90;;;;;;5018785;28;20128;-81
2024/04/01 00:17:44;;;;;;;1999.90;999.90;;;7.80;99.90;;;;;;5026677;28;20117;-81
2024/04/01 00:20:10;;;;;;;1999.90;999.90;;;7.80;99.90;;;;;;5022099;28;20049;-80
2024/04/01 00:22:35;;;;;;;1999.90;999.90;;;7.70;99.90;;;;;;5021739;28;20166;-79
2024/04/01 00:25:01;;;;;;;1999.90;999.90;;;7.60;99.90;;;;;;5022237;28;20025;-79
2024/04/01 00:27:27;;;;;;;1999.90;999.90;;;7.70;99.90;;;;;;5019371;28;20390;-81
2024/04/01 00:29:52;;;;;;;1999.90;999.90;;;7.70;99.90;;;;;;5021602;28;20047;-79
2024/04/01 00:32:18;;;;;;;1999.90;999.90;;;7.70;99.90;;;;;;5022360;28;20575;-80
2024/04/01 00:34:44;;;;;;;1999.90;999.90;;;7.80;99.90;;;;;;5024321;28;20079;-79
2024/04/01 00:37:09;;;;;;;1999.90;999.90;;;7.60;99.90;;;;;;5019783;28;20068;-80
2024/04/01 00:39:35;;;;;;;1999.90;999.90;;;7.60;99.90;;;;;;5024181;28;20042;-80
2024/04/01 00:42:00;;;;;;;1999.90;999.90;;;7.60;99.90;;;;;;5024787;28;20029;-80
2024/04/01 00:44:26;;;;;;;1999.90;999.90;;;7.60;99.90;;;;;;5022657;28;20044;-80
2024/04/01 00:46:53;;;;;;;1999.90;999.90;;;7.70;99.90;;;;;;5022640;28;20060;-78
2024/04/01 00:49:20;;;;;;;1999.90;999.90;;;7.70;99.90;;;;;;5020985;28;20033;-79
2024/04/01 00:51:46;;;;;;;1999.90;999.90;;;7.80;99.90;;;;;;5019887;28;20032;-78
2024/04/01 00:54:13;;;;;;;1999.90;999.90;;;7.90;99.90;;;;;;5019771;28;20029;-78
2024/04/01 00:56:42;;;;;;;1999.90;999.90;;;7.90;99.90;;;;;;5015676;28;20056;-79
2024/04/01 00:59:08;;;;;;;1999.90;999.90;;;8.00;99.90;;;;;;5021572;28;20501;-80
2024/04/01 01:01:34;;;;;;;1999.90;999.90;;;8.00;99.90;;;;;;5021121;28;20117;-81
2024/04/01 01:04:03;;;;;;;1999.90;999.90;;;8.10;99.90;;;;;;5021119;28;20124;-80
2024/04/01 01:06:30;;;;;;;1999.90;999.90;;;7.90;99.90;;;;;;5022348;28;20036;-80
2024/04/01 01:08:57;;;;;;;1999.90;999.90;;;7.90;99.90;;;;;;5018873;28;20036;-80
2024/04/01 01:11:23;;;;;;;;;;;8.00;99.90;;;;;;5021547;28;20025;-79
2024/04/01 01:13:49;;;;;;;1999.90;999.90;;;7.90;99.90;;;;;;5020607;28;19924;-80
2024/04/01 01:16:14;;;;;;;1999.90;999.90;;;8.00;99.90;;;;;;5021420;28;20041;-79
2024/04/01 01:18:40;;;;;;;1999.90;999.90;;;8.00;99.90;;;;;;5022359;28;20043;-80
2024/04/01 01:21:06;;;;;;;1999.90;999.90;;;8.10;99.90;;;;;;5021113;28;20025;-79
2024/04/01 01:23:32;;;;;;;1999.90;999.90;;;8.00;99.90;;;;;;5020544;28;20029;-79
2024/04/01 01:25:58;;;;;;;1999.90;999.90;;;7.90;99.90;;;;;;5020893;28;20032;-79
2024/04/01 01:28:24;;;;;;;1999.90;999.90;;;8.00;99.90;;;;;;5018850;28;20041;-78
2024/04/01 01:30:49;;;;;;;1999.90;999.90;;;8.10;99.90;;;;;;5021199;28;20025;-79
2024/04/01 01:33:15;;;;;;;1999.90;999.90;;;8.00;99.90;;;;;;5021669;28;20025;-78
2024/04/01 01:35:41;;;;;;;1999.90;999.90;;;8.10;99.90;;;;;;5025181;28;20032;-79
2024/04/01 01:38:10;;;;;;;1999.90;999.90;;;7.90;99.90;;;;;;5021254;28;20033;-79
2024/04/01 01:40:35;;;;;;;1999.90;999.90;;;7.80;99.90;;;;;;5025626;28;20040;-80
2024/04/01 01:43:01;;;;;;;1999.90;999.90;;;7.90;99.90;;;;;;5022155;28;20022;-80
2024/04/01 01:45:27;;;;;;;1999.90;999.90;;;7.90;99.90;;;;;;5018163;28;20021;-79
2024/04/01 01:47:52;;;;;;;1999.90;999.90;;;7.90;99.90;;;;;;5026828;28;20037;-80
2024/04/01 01:50:18;;;;;;;1999.90;999.90;;;7.70;99.90;;;;;;5023689;28;20504;-80
2024/04/01 01:52:44;;;;;;;1999.90;999.90;;;7.70;99.90;;;;;;5025480;28;20034;-80
2024/04/01 01:55:09;;;;;;;1999.90;999.90;;;7.60;99.90;;;;;;5025753;28;21084;-78
2024/04/01 01:57:35;;;;;;;1999.90;999.90;;;7.70;99.90;;;;;;5028189;28;20036;-80
2024/04/01 02:00:05;;;;;;;1999.90;999.90;;;7.60;99.90;;;;;;5023034;28;20146;-79
2024/04/01 02:02:32;;;;;;;1999.90;999.90;;;7.60;99.90;;;;;;5023425;28;20112;-79
2024/04/01 02:04:59;;;;;;;1999.90;999.90;;;7.60;99.90;;;;;;5024863;28;20026;-80
2024/04/01 02:07:25;;;;;;;1999.90;999.90;;;7.70;99.90;;;;;;5024147;28;20033;-81
2024/04/01 02:09:50;;;;;;;1999.90;999.90;;;7.80;99.90;;;;;;5024740;28;20033;-82
2024/04/01 02:12:16;;;;;;;1999.90;999.90;;;7.90;99.90;;;;;;5024544;28;20029;-81
2024/04/01 02:14:46;;;;;;;1999.90;999.90;;;7.90;99.90;;;;;;5023511;28;20030;-79
2024/04/01 02:17:12;;;;;;;1999.90;999.90;;;7.90;99.90;;;;;;5023684;28;21003;-78
2024/04/01 02:19:38;;;;;;;1999.90;999.90;;;7.90;99.90;;;;;;5024602;28;20025;-78
2024/04/01 02:22:12;;;;;;;1999.90;999.90;;;7.90;99.90;;;;;;5024622;28;20053;-78
2024/04/01 02:24:41;;;;;;;1999.90;999.90;;;7.80;99.90;;;;;;5024461;28;20029;-80
2024/04/01 02:27:09;;;;;;;1999.90;999.90;;;7.90;99.90;;;;;;5024216;28;20033;-80
2024/04/01 02:29:38;;;;;;;1999.90;999.90;;;7.80;99.90;;;;;;5023189;28;20793;-81
2024/04/01 02:32:04;;;;;;;1999.90;999.90;;;7.90;99.90;;;;;;5022518;28;20033;-81
2024/04/01 02:34:30;;;;;;;1999.90;999.90;;;7.90;99.90;;;;;;5024070;28;20033;-79
2024/04/01 02:36:56;;;;;;;1999.90;999.90;;;7.90;99.90;;;;;;5023591;28;20037;-80
2024/04/01 02:39:22;;;;;;;1999.90;999.90;;;7.80;99.90;;;;;;5021052;28;20099;-81
2024/04/01 02:41:49;;;;;;;1999.90;999.90;;;7.80;99.90;;;;;;5024739;28;20373;-80
2024/04/01 02:44:14;;;;;;;;;;;7.80;99.90;;;;;;5022913;28;20069;-79
2024/04/01 02:46:41;;;;;;;1999.90;999.90;;;7.80;99.90;;;;;;5021882;28;19999;-80
2024/04/01 02:49:09;;;;;;;1999.90;999.90;;;7.80;99.90;;;;;;5019419;28;20037;-80
2024/04/01 02:51:34;;;;;;;1999.90;999.90;;;7.70;99.90;;;;;;5026752;28;20068;-78
2024/04/01 02:54:00;;;;;;;1999.90;999.90;;;7.70;99.90;;;;;;5026853;28;20091;-78
2024/04/01 02:56:26;;;;;;;1999.90;999.90;;;7.70;99.90;;;;;;5022080;28;20062;-80
2024/04/01 02:58:54;;;;;;;1999.90;999.90;;;7.70;99.90;;;;;;5023800;28;20456;-80
2024/04/01 03:01:20;;;;;;;1999.90;999.90;;;7.70;99.90;;;;;;5022817;28;20798;-80
2024/04/01 03:03:46;;;;;;;1999.90;999.90;;;7.60;99.90;;;;;;5019484;28;20103;-81
2024/04/01 03:06:12;;;;;;;1999.90;999.90;;;7.60;99.90;;;;;;5022233;28;20116;-80
2024/04/01 03:08:39;;;;;;;1999.90;999.90;;;7.60;99.90;;;;;;5023523;28;20060;-80
2024/04/01 03:11:05;;;;;;;1999.90;999.90;;;7.60;99.90;;;;;;5023849;28;20038;-79
2024/04/01 03:13:31;;;;;;;1999.90;999.90;;;7.60;99.90;;;;;;5023814;28;20028;-79
2024/04/01 03:15:57;;;;;;;1999.90;999.90;;;7.50;99.90;;;;;;5023738;28;20632;-79
2024/04/01 03:18:24;;;;;;;1999.90;999.90;;;7.60;99.90;;;;;;5022857;28;20510;-82
2024/04/01 03:20:52;;;;;;;1999.90;999.90;;;7.60;99.90;;;;;;5023159;28;20038;-80
2024/04/01 03:23:18;;;;;;;1999.90;999.90;;;7.60;99.90;;;;;;5023768;28;20022;-81
2024/04/01 03:25:53;;;;;;;1999.90;999.90;;;7.50;99.90;;;;;;5023175;28;20650;-82
2024/04/01 03:28:19;;;;;;;1999.90;999.90;;;7.40;99.90;;;;;;5023980;28;20030;-82
2024/04/01 03:30:48;;;;;;;1999.90;999.90;;;7.40;99.90;;;;;;5024570;28;20033;-81
2024/04/01 03:33:15;;;;;;;1999.90;999.90;;;7.40;99.90;;;;;;5022476;28;20273;-81
2024/04/01 03:35:40;;;;;;;1999.90;999.90;;;7.40;99.90;;;;;;5020654;28;20065;-81
2024/04/01 03:38:07;;;;;;;1999.90;999.90;;;7.30;99.90;;;;;;5021727;28;20033;-79
2024/04/01 03:40:37;;;;;;;1999.90;999.90;;;7.20;99.90;;;;;;5023013;28;20383;-82
2024/04/01 03:43:03;;;;;;;1999.90;999.90;;;7.10;99.90;;;;;;5022296;28;20048;-81
2024/04/01 03:45:29;;;;;;;1999.90;999.90;;;7.00;99.90;;;;;;5023879;28;20021;-81
2024/04/01 03:47:55;;;;;;;1999.90;999.90;;;7.20;99.90;;;;;;5024434;28;20048;-80
2024/04/01 03:50:20;;;;;;;1999.90;999.90;;;7.10;99.90;;;;;;5022913;28;20112;-79
2024/04/01 03:52:46;;;;;;;1999.90;999.90;;;7.10;99.90;;;;;;5018048;28;20480;-80
2024/04/01 03:55:12;;;;;;;1999.90;999.90;;;7.00;99.90;;;;;;5019003;28;20127;-80
2024/04/01 03:57:37;;;;;;;1999.90;999.90;;;7.00;99.90;;;;;;5020453;28;20076;-81
2024/04/01 04:00:04;;;;;;;1999.90;999.90;;;7.00;99.90;;;;;;5023068;28;20116;-81
2024/04/01 04:02:30;;;;;;;1999.90;999.90;;;7.10;99.90;;;;;;5020689;28;20026;-79
2024/04/01 04:04:55;;;;;;;1999.90;999.90;;;7.10;99.90;;;;;;5025536;28;20060;-80
2024/04/01 04:07:21;;;;;;;1999.90;999.90;;;7.10;99.90;;;;;;5023339;28;20029;-81
2024/04/01 04:09:48;;;;;;;1999.90;999.90;;;7.10;99.90;;;;;;5018685;28;20038;-81
2024/04/01 04:12:13;;;;;;;1999.90;999.90;;;7.10;99.90;;;;;;5020296;28;20030;-80
2024/04/01 04:14:39;;;;;;;1999.90;999.90;;;7.20;99.90;;;;;;5022834;28;20483;-80
2024/04/01 04:17:05;;;;;;;1999.90;999.90;;;7.20;99.90;;;;;;5022929;28;20405;-80
2024/04/01 04:19:30;;;;;;;1999.90;999.90;;;7.10;99.90;;;;;;5025284;28;20021;-79
2024/04/01 04:21:56;;;;;;;1999.90;999.90;;;7.10;99.90;;;;;;5022452;28;20148;-79
2024/04/01 04:24:24;;;;;;;1999.90;999.90;;;7.10;99.90;;;;;;5025862;28;20028;-78
2024/04/01 04:26:50;;;;;;;1999.90;999.90;;;6.90;99.90;;;;;;5022205;28;20033;-78
2024/04/01 04:29:16;;;;;;;1999.90;999.90;;;7.00;99.90;;;;;;5021516;28;20029;-78
2024/04/01 04:31:55;;;;;;;1999.90;999.90;;;7.00;99.90;;;;;;5022187;28;20807;-78
2024/04/01 04:34:21;;;;;;;1999.90;999.90;;;7.00;99.90;;;;;;5018012;28;20037;-78
2024/04/01 04:36:47;;;;;;;1999.90;999.90;;;7.00;99.90;;;;;;5021314;28;20033;-79
2024/04/01 04:39:25;;;;;;;1999.90;999.90;;;7.00;99.90;;;;;;5022147;28;20048;-78
2024/04/01 04:41:51;;;;;;;1999.90;999.90;;;7.00;99.90;;;;;;5024062;28;20033;-78
2024/04/01 04:44:17;;;;;;;1999.90;999.90;;;6.90;99.90;;;;;;5022053;28;20041;-79
2024/04/01 04:46:43;;;;;;;1999.90;999.90;;;6.80;99.90;;;;;;5023478;28;20029;-79
2024/04/01 04:49:09;;;;;;;1999.90;999.90;;;6.70;99.90;;;;;;5019750;28;20392;-79
2024/04/01 04:51:34;;;;;;;1999.90;999.90;;;6.70;99.90;;;;;;5022259;28;20021;-79
2024/04/01 04:54:00;;;;;;;1999.90;999.90;;;6.80;99.90;;;;;;5052083;28;20034;-79
2024/04/01 04:56:27;;;;;;;1999.90;999.90;;;6.70;99.90;;;;;;5016816;28;20064;-78
2024/04/01 04:58:53;;;;;;;1999.90;999.90;;;6.60;99.90;;;;;;5016868;28;20769;-79
2024/04/01 05:01:22;;;;;;;1999.90;999.90;;;6.70;99.90;;;;;;5022410;28;20026;-78
2024/04/01 05:03:48;;;;;;;1999.90;999.90;;;6.70;99.90;;;;;;5021889;28;20029;-79
2024/04/01 05:06:14;;;;;;;1999.90;999.90;;;6.60;99.90;;;;;;5023577;28;20397;-79
2024/04/01 05:08:40;;;;;;;1999.90;999.90;;;6.70;99.90;;;;;;5022143;28;20211;-78
2024/04/01 05:11:07;;;;;;;1999.90;999.90;;;6.70;99.90;;;;;;5022216;28;20044;-81
2024/04/01 05:13:33;;;;;;;;;;;6.80;99.90;;;;;;5028364;28;20120;-80
2024/04/01 05:15:58;;;;;;;1999.90;999.90;;;6.90;99.90;;;;;;5025838;28;19995;-80
2024/04/01 05:18:26;;;;;;;1999.90;999.90;;;6.90;99.90;;;;;;5026463;28;20052;-79
2024/04/01 05:20:52;;;;;;;1999.90;999.90;;;6.80;99.90;;;;;;5025441;28;20026;-79
2024/04/01 05:23:18;;;;;;;1999.90;999.90;;;6.70;99.90;;;;;;5025496;28;20017;-79
2024/04/01 05:25:45;;;;;;;1999.90;999.90;;;6.70;99.90;;;;;;5023753;28;20033;-79
2024/04/01 05:28:11;;;;;;;1999.90;999.90;;;6.60;99.90;;;;;;5025319;28;20033;-80
2024/04/01 05:30:37;;;;;;;1999.90;999.90;;;6.60;99.90;;;;;;5025654;28;20583;-80
2024/04/01 05:33:03;;;;;;;1999.90;999.90;;;6.80;99.90;;;;;;5021773;28;20037;-79
2024/04/01 05:35:33;;;;;;;1999.90;999.90;;;6.80;99.90;;;;;;5026691;28;20025;-80
2024/04/01 05:38:02;;;;;;;1999.90;999.90;;;6.90;99.90;;;;;;5025240;28;20828;-81
2024/04/01 05:40:28;;;;;;;1999.90;999.90;;;6.90;99.90;;;;;;5025250;28;20030;-81
2024/04/01 05:42:53;;;;;;;1999.90;999.90;;;7.00;99.90;;;;;;5025053;28;20040;-80
2024/04/01 05:45:19;;;;;;;1999.90;999.90;;;6.90;99.90;;;;;;5025507;28;20045;-79
2024/04/01 05:47:47;;;;;;;1999.90;999.90;;;6.90;99.90;;;;;;5026709;28;20040;-79
2024/04/01 05:50:13;;;;;;;1999.90;999.90;;;6.90;99.90;;;;;;5019819;28;20029;-79
2024/04/01 05:52:39;;;;;;;1999.90;999.90;;;6.90;99.90;;;;;;5023505;28;20658;-78
2024/04/01 05:55:04;;;;;;;1999.90;999.90;;;6.90;99.90;;;;;;5028120;28;20037;-78
2024/04/01 05:57:30;;;;;;;1999.90;999.90;;;6.90;99.90;;;;;;5020243;28;20088;-78
2024/04/01 05:59:56;;;;;;;1999.90;999.90;;;7.00;99.90;;;;;;5024536;28;20052;-78
2024/04/01 06:02:22;;;;;;;1999.90;999.90;;;7.00;99.90;;;;;;5024130;28;20280;-78
2024/04/01 06:04:48;;;;;;;1999.90;999.90;;;7.10;99.90;;;;;;5021763;28;20104;-79
2024/04/01 06:07:14;;;;;;;1999.90;999.90;;;7.20;99.90;;;;;;5025174;28;20033;-79
2024/04/01 06:09:40;;;;;;;1999.90;999.90;;;7.20;99.90;;;;;;5024286;28;20021;-78
2024/04/01 06:12:06;;;;;;;1999.90;999.90;;;7.30;99.90;;;;;;5024961;28;20025;-78
2024/04/01 06:14:32;;;;;;;1999.90;999.90;;;7.20;99.90;;;;;;5024586;28;20029;-78
2024/04/01 06:16:57;;;;;;;1999.90;999.90;;;7.30;99.90;;;;;;5024888;28;20052;-78
2024/04/01 06:19:23;;;;;;;1999.90;999.90;;;7.40;99.90;;;;;;5025784;28;20671;-78
2024/04/01 06:21:49;;;;;;;1999.90;999.90;;;7.50;99.90;;;;;;5025233;28;20040;-79
2024/04/01 06:24:15;;;;;;;1999.90;999.90;;;7.40;99.90;;;;;;5022913;28;20033;-80
2024/04/01 06:26:40;;;;;;;1999.90;999.90;;;7.50;99.90;;;;;;5024593;28;20033;-79
2024/04/01 06:29:06;;;;;;;1999.90;999.90;;;7.70;99.90;;;;;;5019817;28;20040;-79
2024/04/01 06:31:32;;;;;;;1999.90;999.90;;;7.70;99.90;;;;;;5023545;28;20033;-78
2024/04/01 06:33:58;;;;;;;1999.90;999.90;;;7.50;99.90;;;;;;5024161;28;20064;-78
2024/04/01 06:36:24;;;;;;;1999.90;999.90;;;7.90;99.90;;;;;;5024413;28;20068;-78
2024/04/01 06:38:50;;;;;;;1999.90;999.90;;;9.70;99.90;;;;;;5025902;28;20075;-79
2024/04/01 06:41:16;;;;;;;1999.90;999.90;;;12.00;99.50;;;;;;5026024;28;20037;-79
2024/04/01 06:43:41;;;;;;;1999.90;999.90;;;10.40;98.30;;;;;;5009864;28;20021;-79
2024/04/01 06:46:07;;;;;;;1999.90;999.90;;;9.70;99.90;;;;;;5018482;28;20022;-78
2024/04/01 06:48:34;;;;;;;1999.90;999.90;;;9.30;99.90;;;;;;5024148;28;20797;-79
2024/04/01 06:51:00;;;;;;;1999.90;999.90;;;9.10;99.90;;;;;;5023109;28;20179;-79
2024/04/01 06:53:26;;;;;;;1999.90;999.90;;;8.90;99.90;;;;;;5023601;28;20729;-79
2024/04/01 06:55:52;;;;;;;1999.90;999.90;;;8.70;99.90;;;;;;5023459;28;20092;-79
2024/04/01 06:58:18;;;;;;;1999.90;999.90;;;8.40;99.90;;;;;;5024498;28;20118;-78
2024/04/01 07:00:44;;;;;;;1999.90;999.90;;;8.70;99.90;;;;;;5022497;28;20033;-79
2024/04/01 07:03:10;;;;;;;1999.90;999.90;;;8.90;99.90;;;;;;5024806;28;20079;-78
2024/04/01 07:05:36;;;;;;;1999.90;999.90;;;9.10;99.90;;;;;;5033214;28;20814;-79
2024/04/01 07:08:02;;;;;;;1999.90;999.90;;;9.10;99.90;;;;;;5031478;28;20119;-78
2024/04/01 07:10:31;;;;;;;1999.90;999.90;;;8.80;99.90;;;;;;5029362;28;20095;-78
2024/04/01 07:12:57;;;;;;;1999.90;999.90;;;8.90;99.90;;;;;;5029259;28;20124;-78
2024/04/01 07:15:23;;;;;;;1999.90;999.90;;;9.10;99.90;;;;;;5022252;28;20523;-78
2024/04/01 07:17:49;;;;;;;1999.90;999.90;;;9.10;99.90;;;;;;5017652;28;20026;-77
2024/04/01 07:20:15;;;;;;;1999.90;999.90;;;9.10;99.90;;;;;;5019083;28;20497;-78
2024/04/01 07:22:41;;;;;;;1999.90;999.90;;;9.10;99.90;;;;;;5022257;28;20033;-79
2024/04/01 07:25:07;;;;;;;1999.90;999.90;;;9.10;99.90;;;;;;5022014;28;20025;-78
2024/04/01 07:27:36;;;;;;;1999.90;999.90;;;10.20;99.90;;;;;;5022197;28;20033;-76
2024/04/01 07:30:02;;;;;;;1999.90;999.90;;;10.80;98.70;;;;;;5019443;28;20042;-77
2024/04/01 07:32:29;;;;;;;1999.90;999.90;;;11.50;97.00;;;;;;5022247;28;20026;-77
2024/04/01 07:34:56;;;;;;;;;;;12.20;94.00;;;;;;5022337;28;20026;-77
2024/04/01 07:37:22;;;;;;;1999.90;999.90;;;13.00;94.10;;;;;;5018042;28;19916;-77
2024/04/01 07:39:50;;;;;;;1999.90;999.90;;;13.20;92.60;;;;;;5016352;28;20037;-77
2024/04/01 07:42:16;;;;;;;1999.90;999.90;;;12.40;92.80;;;;;;5021475;28;20034;-77
2024/04/01 07:44:42;;;;;;;1999.90;999.90;;;11.60;94.10;;;;;;5021307;28;20393;-78
2024/04/01 07:47:08;;;;;;;1999.90;999.90;;;11.90;94.50;;;;;;5023137;28;20047;-77
2024/04/01 07:49:34;;;;;;;1999.90;999.90;;;12.50;93.00;;;;;;5022658;28;20564;-78
2024/04/01 07:52:00;;;;;;;1999.90;999.90;;;13.00;92.30;;;;;;5020898;28;20029;-78
2024/04/01 07:54:28;;;;;;;1999.90;999.90;;;12.90;91.40;;;;;;5015052;28;20034;-78
2024/04/01 07:56:54;;;;;;;1999.90;999.90;;;13.60;91.20;;;;;;5019569;28;20046;-77
2024/04/01 07:59:20;;;;;;;1999.90;999.90;;;13.80;90.00;;;;;;5021013;28;20037;-77
2024/04/01 08:01:45;;;;;;;1999.90;999.90;;;14.50;87.70;;;;;;5023476;28;20026;-77
2024/04/01 08:04:13;;;;;;;1999.90;999.90;;;17.20;81.50;;;;;;5024601;28;20555;-78
2024/04/01 08:06:39;;;;;;;1999.90;999.90;;;18.80;72.70;;;;;;5021620;28;20602;-78
2024/04/01 08:09:05;;;;;;;1999.90;999.90;;;19.70;68.00;;;;;;5021413;28;20037;-78
2024/04/01 08:11:30;;;;;;;1999.90;999.90;;;17.80;68.50;;;;;;5020666;28;20034;-79
2024/04/01 08:13:56;;;;;;;1999.90;999.90;;;17.60;73.20;;;;;;5022565;28;20439;-75
2024/04/01 08:16:22;;;;;;;1999.90;999.90;;;18.80;68.70;;;;;;5023731;28;20049;-74
2024/04/01 08:18:47;;;;;;;1999.90;999.90;;;19.00;65.90;;;;;;5022163;28;20029;-75
2024/04/01 08:21:13;;;;;;;1999.90;999.90;;;17.30;69.30;;;;;;5026182;28;20037;-75
2024/04/01 08:23:38;;;;;;;1999.90;999.90;;;16.20;73.80;;;;;;5021382;28;20322;-75
2024/04/01 08:26:04;;;;;;;1999.90;999.90;;;15.40;74.50;;;;;;5019363;28;20062;-75
2024/04/01 08:28:30;;;;;;;1999.90;999.90;;;14.20;78.60;;;;;;5029875;28;20059;-74
2024/04/01 08:30:55;;;;;;;1999.90;999.90;;;13.40;82.70;;;;;;5016032;28;20436;-74
2024/04/01 08:33:21;;;;;;;1999.90;999.90;;;13.00;81.30;;;;;;5020711;28;20048;-77
2024/04/01 08:35:47;;;;;;;1999.90;999.90;;;12.80;83.80;;;;;;5024003;28;20741;-77
2024/04/01 08:38:13;;;;;;;1999.90;999.90;;;12.70;84.40;;;;;;5020924;28;20064;-77
2024/04/01 08:40:50;;;;;;;1999.90;999.90;;;12.60;82.60;;;;;;5021131;28;20052;-75
2024/04/01 08:43:27;;;;;;;1999.90;999.90;;;12.80;83.60;;;;;;5017044;28;20034;-76
2024/04/01 08:45:53;;;;;;;1999.90;999.90;;;12.90;83.50;;;;;;5039814;28;20116;-76
2024/04/01 08:48:23;;;;;;;1999.90;999.90;;;12.90;84.20;;;;;;5026899;28;20025;-76
2024/04/01 08:51:02;;;;;;;1999.90;999.90;;;13.20;83.50;;;;;;5016652;28;20037;-76
2024/04/01 08:53:52;;;;;;;1999.90;999.90;;;13.10;85.10;;;;;;5021636;28;20041;-76
2024/04/01 08:56:19;;;;;;;1999.90;999.90;;;12.90;82.80;;;;;;5022282;28;20046;-76
2024/04/01 08:58:46;;;;;;;1999.90;999.90;;;13.60;82.40;;;;;;5020301;28;20041;-75
2024/04/01 09:01:12;;;;;;;1999.90;999.90;;;13.50;82.30;;;;;;5020692;28;20204;-76
2024/04/01 09:03:38;;;;;;;1999.90;999.90;;;13.20;81.10;;;;;;5020416;28;20116;-75
2024/04/01 09:06:04;;;;;;;1999.90;999.90;;;14.20;80.60;;;;;;5013866;28;20299;-76
2024/04/01 09:08:30;;;;;;;1999.90;999.90;;;15.00;79.80;;;;;;5020283;28;20477;-76
2024/04/01 09:10:56;;;;;;;1999.90;999.90;;;14.60;79.50;;;;;;5022950;28;20064;-76
2024/04/01 09:13:22;;;;;;;1999.90;999.90;;;15.00;77.40;;;;;;5023088;28;20951;-76
2024/04/01 09:15:49;;;;;;;1999.90;999.90;;;15.80;75.40;;;;;;5019083;28;20132;-76
2024/04/01 09:18:16;;;;;;;1999.90;999.90;;;15.90;74.10;;;;;;5020058;28;20041;-76
2024/04/01 09:20:43;;;;;;;1999.90;999.90;;;14.50;77.90;;;;;;5020279;28;20032;-76
2024/04/01 09:23:09;;;;;;;1999.90;999.90;;;13.70;79.50;;;;;;5020775;28;20844;-76
2024/04/01 09:25:35;;;;;;;1999.90;999.90;;;13.90;78.80;;;;;;5022279;28;20060;-76
2024/04/01 09:28:01;;;;;;;1999.90;999.90;;;13.70;79.50;;;;;;5021815;28;20091;-76
2024/04/01 09:30:27;;;;;;;1999.90;999.90;;;13.10;78.70;;;;;;5022105;28;20075;-76
2024/04/01 09:32:54;;;;;;;1999.90;999.90;;;12.90;82.40;;;;;;5021937;28;20802;-76
2024/04/01 09:35:22;;;;;;;1999.90;999.90;;;12.60;85.40;;;;;;5021924;28;20828;-76
2024/04/01 09:37:49;;;;;;;1999.90;999.90;;;12.30;87.10;;;;;;5021929;28;20037;-76
2024/04/01 09:40:16;;;;;;;;;;;12.00;86.00;;;;;;5022585;28;20109;-77
2024/04/01 09:42:42;;;;;;;1999.90;999.90;;;11.60;87.80;;;;;;5021969;28;19916;-76
2024/04/01 09:45:09;;;;;;;1999.90;999.90;;;11.80;86.40;;;;;;5021896;28;20662;-76
2024/04/01 09:47:37;;;;;;;1999.90;999.90;;;11.80;86.30;;;;;;5022415;28;20033;-76
2024/04/01 09:50:05;;;;;;;1999.90;999.90;;;11.90;86.20;;;;;;5022226;28;20550;-76
2024/04/01 09:52:31;;;;;;;1999.90;999.90;;;11.40;86.00;;;;;;5022512;28;20822;-76
2024/04/01 09:55:05;;;;;;;1999.90;999.90;;;11.60;88.00;;;;;;5020667;28;20025;-76
2024/04/01 09:57:34;;;;;;;1999.90;999.90;;;11.50;86.90;;;;;;5018139;28;20052;-76
2024/04/01 10:00:16;;;;;;;1999.90;999.90;;;11.40;88.20;;;;;;5024454;28;20032;-76
2024/04/01 10:02:56;;;;;;;1999.90;999.90;;;11.30;87.30;;;;;;5024453;28;20030;-77
2024/04/01 10:05:53;;;;;;;1999.90;999.90;;;11.60;88.40;;;;;;5023628;28;20744;-77
2024/04/01 10:08:39;;;;;;;1999.90;999.90;;;12.40;87.50;;;;;;5025869;28;20568;-76
2024/04/01 10:11:30;;;;;;;1999.90;999.90;;;12.60;87.10;;;;;;5020334;28;20037;-77
2024/04/01 10:14:15;;;;;;;1999.90;999.90;;;12.60;85.60;;;;;;5020038;28;20042;-77
2024/04/01 10:16:46;;;;;;;1999.90;999.90;;;12.80;85.30;;;;;;5022442;28;20021;-77
2024/04/01 10:19:18;;;;;;;1999.90;999.90;;;12.50;86.40;;;;;;5025021;28;20029;-77
2024/04/01 10:22:14;;;;;;;1999.90;999.90;;;12.30;84.30;;;;;;5024923;28;20061;-77
2024/04/01 10:24:59;;;;;;;1999.90;999.90;;;12.00;85.20;;;;;;5021026;28;20033;-77
2024/04/01 10:27:43;;;;;;;1999.90;999.90;;;12.40;84.50;;;;;;5027362;28;20137;-77
2024/04/01 10:30:32;;;;;;;1999.90;999.90;;;12.40;85.60;;;;;;5013442;28;20026;-77
2024/04/01 10:33:17;;;;;;;1999.90;999.90;;;12.60;86.60;;;;;;5021297;28;20112;-76
2024/04/01 10:36:00;;;;;;;1999.90;999.90;;;12.50;85.20;;;;;;5024171;28;20032;-76
2024/04/01 10:39:01;;;;;;;1999.90;999.90;;;12.50;84.10;;;;;;5021298;28;20037;-76
2024/04/01 10:41:45;;;;;;;1999.90;999.90;;;13.00;81.50;;;;;;5038189;28;20018;-76
2024/04/01 10:44:35;;;;;;;1999.90;999.90;;;13.30;82.00;;;;;;5024628;28;20060;-75
2024/04/01 10:47:13;;;;;;;1999.90;999.90;;;12.70;80.70;;;;;;5025616;28;20033;-73
2024/04/01 10:49:42;;;;;;;1999.90;999.90;;;13.60;79.80;;;;;;5024421;28;20040;-74
2024/04/01 10:52:42;;;;;;;1999.90;999.90;;;14.20;77.60;;;;;;5027743;28;20021;-75
2024/04/01 10:55:17;;;;;;;1999.90;999.90;;;14.50;76.10;;;;;;5024537;28;20028;-75
2024/04/01 10:58:06;;;;;;;1999.90;999.90;;;14.40;78.00;;;;;;5017458;28;20037;-75
2024/04/01 11:01:17;;;;;;;1999.90;999.90;;;14.30;79.50;;;;;;5027917;28;20124;-76
2024/04/01 11:04:19;;;;;;;1999.90;999.90;;;14.00;76.70;;;;;;5022718;28;20487;-80
2024/04/01 11:06:58;;;;;;;1999.90;999.90;;;14.20;77.60;;;;;;5023660;28;20033;-78
2024/04/01 11:09:43;;;;;;;1999.90;999.90;;;13.80;79.60;;;;;;5017755;28;20453;-79
2024/04/01 11:12:31;;;;;;;1999.90;999.90;;;13.60;78.30;;;;;;5023402;28;20051;-77
2024/04/01 11:15:03;;;;;;;1999.90;999.90;;;13.40;79.90;;;;;;5023331;28;20139;-79
2024/04/01 11:17:30;;;;;;;1999.90;999.90;;;13.40;79.50;;;;;;5031212;28;20021;-78
2024/04/01 11:20:04;;;;;;;;;;;13.80;78.70;;;;;;5025826;28;20052;-82
2024/04/01 11:22:55;;;;;;;1999.90;999.90;;;14.70;78.80;;;;;;5023151;28;19913;-80
2024/04/01 11:25:48;;;;;;;1999.90;999.90;;;15.40;80.90;;;;;;5021877;28;20306;-79
2024/04/01 11:28:40;;;;;;;1999.90;999.90;;;15.10;78.30;;;;;;5022692;28;20124;-80
2024/04/01 11:31:28;;;;;;;1999.90;999.90;;;14.40;75.80;;;;;;5021007;28;20035;-81
2024/04/01 11:34:03;;;;;;;1999.90;999.90;;;14.60;79.00;;;;;;5024587;28;20029;-81
2024/04/01 11:36:57;;;;;;;1999.90;999.90;;;14.80;78.20;;;;;;5019671;28;20026;-81
2024/04/01 11:39:24;;;;;;;1999.90;999.90;;;14.50;80.00;;;;;;5019060;28;20036;-79
2024/04/01 11:41:51;;;;;;;1999.90;999.90;;;14.30;79.30;;;;;;5026395;28;20128;-81
2024/04/01 11:44:22;;;;;;;1999.90;999.90;;;14.20;78.50;;;;;;5024006;28;20040;-81
2024/04/01 11:46:50;;;;;;;1999.90;999.90;;;14.10;81.10;;;;;;5021954;28;20040;-80
2024/04/01 11:49:16;;;;;;;1999.90;999.90;;;14.30;79.10;;;;;;5026243;28;20025;-80
2024/04/01 11:51:42;;;;;;;1999.90;999.90;;;14.10;84.00;;;;;;5025088;28;20056;-81
2024/04/01 11:54:08;;;;;;;1999.90;999.90;;;13.80;84.20;;;;;;5025719;28;20041;-80
2024/04/01 11:56:38;;;;;;;1999.90;999.90;;;14.00;83.60;;;;;;5022213;28;20046;-80
2024/04/01 11:59:06;;;;;;;1999.90;999.90;;;14.10;80.30;;;;;;5022507;28;20554;-83
2024/04/01 12:01:36;;;;;;;1999.90;999.90;;;14.10;78.50;;;;;;5023633;28;20032;-77
2024/04/01 12:04:03;;;;;;;1999.90;999.90;;;13.90;76.00;;;;;;5022398;28;20033;-79
2024/04/01 12:06:30;;;;;;;1999.90;999.90;;;13.80;79.20;;;;;;5022566;28;20026;-84
2024/04/01 12:09:01;;;;;;;1999.90;999.90;;;14.10;74.90;;;;;;5020408;28;20063;-74
2024/04/01 12:11:34;;;;;;;1999.90;999.90;;;14.40;72.10;;;;;;5021534;28;20065;-73
2024/04/01 12:14:01;;;;;;;1999.90;999.90;;;14.60;71.90;;;;;;5022234;28;20413;-73